createdAt,value
2022-11-12T00:00:59.173Z,10.45
2022-11-12T00:03:26.609Z,8.95
2022-11-12T00:05:53.588Z,9.30
2022-11-12T00:08:20.787Z,9.30
2022-11-12T00:10:47.545Z,10.50
2022-11-12T00:13:14.823Z,10.15
2022-11-12T00:15:41.971Z,11.25
2022-11-12T00:18:09.183Z,10.68
2022-11-12T00:20:35.980Z,10.50
2022-11-12T00:23:03.024Z,10.32
2022-11-12T00:25:30.209Z,10.88
2022-11-12T00:28:07.486Z,11.13
2022-11-12T00:30:36.553Z,10.88
2022-11-12T00:33:05.027Z,10.07
2022-11-12T00:35:32.936Z,10.18
2022-11-12T00:38:00.574Z,11.82
2022-11-12T00:40:28.370Z,11.13
2022-11-12T00:42:55.260Z,9.65
2022-11-12T00:45:22.731Z,11.40
2022-11-12T00:47:49.415Z,10.90
2022-11-12T00:50:16.512Z,12.73
2022-11-12T00:52:44.039Z,11.05
2022-11-12T00:55:11.057Z,9.90
2022-11-12T00:57:37.761Z,10.63
2022-11-12T01:00:06.648Z,10.50
2022-11-12T01:02:38.574Z,10.55
2022-11-12T01:05:07.907Z,10.07
2022-11-12T01:07:35.062Z,10.30
2022-11-12T01:10:01.735Z,9.90
2022-11-12T01:12:31.662Z,10.38
2022-11-12T01:14:58.518Z,10.23
2022-11-12T01:17:25.299Z,10.20
2022-11-12T01:19:51.947Z,10.23
2022-11-12T01:22:18.796Z,10.53
2022-11-12T01:24:45.472Z,10.07
2022-11-12T01:27:12.186Z,10.93
2022-11-12T01:29:38.944Z,11.75
2022-11-12T01:32:06.191Z,11.65
2022-11-12T01:34:32.988Z,12.27
2022-11-12T01:36:59.712Z,13.35
2022-11-12T01:39:26.378Z,12.98
2022-11-12T01:41:53.076Z,13.57
2022-11-12T01:44:21.684Z,14.15
2022-11-12T01:47:00.476Z,14.63
2022-11-12T01:49:50.463Z,14.45
2022-11-12T01:52:37.978Z,13.88
2022-11-12T01:55:13.788Z,14.73
2022-11-12T01:57:51.559Z,14.73
2022-11-12T02:00:18.561Z,14.03
2022-11-12T02:03:01.409Z,14.10
2022-11-12T02:05:30.783Z,14.45
2022-11-12T02:08:00.147Z,14.20
2022-11-12T02:10:27.629Z,13.68
2022-11-12T02:13:13.868Z,13.63
2022-11-12T02:15:41.590Z,14.52
2022-11-12T02:18:09.024Z,14.48
2022-11-12T02:20:37.172Z,13.68
2022-11-12T02:23:05.328Z,13.57
2022-11-12T02:25:32.082Z,14.23
2022-11-12T02:27:59.597Z,13.60
2022-11-12T02:30:35.589Z,14.23
2022-11-12T02:33:02.428Z,13.82
2022-11-12T02:35:29.273Z,15.07
2022-11-12T02:37:57.167Z,15.07
2022-11-12T02:40:24.113Z,14.45
2022-11-12T02:42:50.839Z,14.23
2022-11-12T02:45:18.717Z,14.57
2022-11-12T02:47:45.413Z,13.73
2022-11-12T02:50:12.725Z,14.73
2022-11-12T02:52:42.223Z,14.55
2022-11-12T02:55:10.873Z,14.85
2022-11-12T02:57:38.591Z,14.68
2022-11-12T03:00:08.132Z,15.23
2022-11-12T03:02:34.849Z,15.47
2022-11-12T03:05:01.561Z,15.85
2022-11-12T03:07:28.246Z,15.88
2022-11-12T03:09:55.018Z,15.27
2022-11-12T03:12:21.845Z,14.98
2022-11-12T03:14:48.546Z,16.37
2022-11-12T03:17:15.420Z,16.20
2022-11-12T03:19:42.118Z,16.15
2022-11-12T03:22:08.769Z,16.13
2022-11-12T03:24:35.635Z,16.63
2022-11-12T03:27:02.340Z,16.33
2022-11-12T03:29:29.013Z,16.13
2022-11-12T03:31:55.776Z,16.13
2022-11-12T03:34:22.608Z,17.08
2022-11-12T03:36:49.396Z,16.08
2022-11-12T03:39:16.065Z,16.23
2022-11-12T03:41:42.730Z,16.90
2022-11-12T03:44:09.443Z,16.00
2022-11-12T03:46:40.126Z,16.17
2022-11-12T03:49:09.645Z,15.55
2022-11-12T03:51:36.332Z,16.03
2022-11-12T03:54:03.071Z,14.77
2022-11-12T03:56:29.751Z,15.50
2022-11-12T03:58:56.415Z,14.43
2022-11-12T04:01:23.096Z,14.73
2022-11-12T04:03:49.780Z,14.10
2022-11-12T04:06:35.196Z,12.93
2022-11-12T04:09:01.948Z,13.20
2022-11-12T04:11:28.642Z,13.20
2022-11-12T04:13:55.575Z,13.38
2022-11-12T04:16:41.957Z,13.20
2022-11-12T04:19:30.536Z,13.55
2022-11-12T04:22:03.830Z,13.25
2022-11-12T04:24:54.459Z,13.35
2022-11-12T04:27:34.670Z,13.90
2022-11-12T04:30:17.032Z,14.30
2022-11-12T04:32:55.038Z,13.80
2022-11-12T04:35:23.750Z,13.48
2022-11-12T04:37:51.006Z,13.10
2022-11-12T04:40:40.335Z,14.40
2022-11-12T04:43:29.625Z,14.03
2022-11-12T04:45:57.396Z,14.05
2022-11-12T04:48:25.713Z,14.20
2022-11-12T04:50:58.544Z,14.73
2022-11-12T04:53:25.938Z,15.82
2022-11-12T04:55:54.277Z,14.57
2022-11-12T04:58:22.088Z,14.48
2022-11-12T05:00:50.404Z,14.45
2022-11-12T05:03:17.355Z,14.32
2022-11-12T05:05:44.281Z,12.85
2022-11-12T05:08:11.067Z,12.90
2022-11-12T05:10:37.852Z,13.95
2022-11-12T05:13:04.556Z,13.85
2022-11-12T05:15:31.228Z,14.00
2022-11-12T05:17:57.971Z,13.70
2022-11-12T05:20:24.734Z,14.40
2022-11-12T05:23:05.420Z,14.27
2022-11-12T05:25:35.636Z,14.13
2022-11-12T05:28:02.344Z,15.68
2022-11-12T05:30:29.110Z,15.05
2022-11-12T05:32:55.808Z,14.00
2022-11-12T05:35:22.530Z,14.05
2022-11-12T05:37:49.233Z,14.43
2022-11-12T05:40:16.009Z,13.88
2022-11-12T05:42:42.714Z,14.63
2022-11-12T05:45:09.634Z,15.30
2022-11-12T05:47:36.323Z,15.60
2022-11-12T05:50:03.670Z,14.32
2022-11-12T05:52:30.443Z,14.60
2022-11-12T05:54:57.090Z,14.20
2022-11-12T05:57:23.776Z,14.63
2022-11-12T05:59:50.437Z,14.48
2022-11-12T06:02:17.190Z,15.88
2022-11-12T06:04:43.937Z,15.07
2022-11-12T06:07:10.675Z,14.98
2022-11-12T06:09:37.392Z,14.13
2022-11-12T06:12:06.769Z,15.43
2022-11-12T06:14:33.445Z,13.23
2022-11-12T06:17:00.141Z,14.60
2022-11-12T06:19:26.844Z,13.88
2022-11-12T06:21:53.548Z,13.67
2022-11-12T06:24:20.536Z,14.65
2022-11-12T06:26:47.261Z,15.00
2022-11-12T06:29:13.903Z,14.55
2022-11-12T06:31:40.605Z,14.45
2022-11-12T06:34:07.320Z,13.90
2022-11-12T06:36:34.959Z,13.73
2022-11-12T06:39:01.704Z,14.05
2022-11-12T06:41:28.456Z,13.23
2022-11-12T06:43:55.391Z,13.88
2022-11-12T06:46:22.033Z,13.53
2022-11-12T06:48:48.797Z,13.80
2022-11-12T06:51:20.791Z,13.45
2022-11-12T06:53:47.805Z,14.68
2022-11-12T06:56:14.986Z,14.00
2022-11-12T06:58:42.036Z,14.50
2022-11-12T07:01:14.767Z,16.05
2022-11-12T07:03:42.811Z,15.55
2022-11-12T07:06:11.709Z,15.40
2022-11-12T07:08:39.108Z,15.80
2022-11-12T07:11:06.711Z,16.20
2022-11-12T07:13:34.722Z,16.52
2022-11-12T07:16:01.954Z,17.60
2022-11-12T07:18:29.216Z,15.93
2022-11-12T07:21:07.923Z,16.02
2022-11-12T07:23:36.346Z,15.57
2022-11-12T07:26:04.968Z,15.85
2022-11-12T07:28:32.035Z,15.35
2022-11-12T07:30:59.759Z,15.80
2022-11-12T07:33:27.673Z,15.93
2022-11-12T07:36:06.476Z,15.93
2022-11-12T07:38:36.086Z,15.57
2022-11-12T07:41:09.041Z,16.60
2022-11-12T07:43:37.400Z,16.92
2022-11-12T07:46:25.132Z,16.52
2022-11-12T07:48:52.856Z,16.53
2022-11-12T07:51:24.033Z,17.70
2022-11-12T07:53:58.705Z,17.80
2022-11-12T07:56:26.935Z,16.48
2022-11-12T07:58:53.622Z,17.08
2022-11-12T08:01:40.685Z,16.83
2022-11-12T08:04:09.934Z,16.95
2022-11-12T08:06:37.292Z,17.30
2022-11-12T08:09:07.941Z,16.98
2022-11-12T08:11:35.145Z,17.33
2022-11-12T08:14:02.039Z,16.93
2022-11-12T08:16:28.907Z,17.48
2022-11-12T08:18:55.641Z,17.60
2022-11-12T08:21:22.384Z,19.35
2022-11-12T08:23:49.141Z,19.23
2022-11-12T08:26:19.459Z,20.10
2022-11-12T08:28:46.691Z,20.50
2022-11-12T08:31:19.247Z,20.35
2022-11-12T08:33:46.058Z,19.25
2022-11-12T08:36:15.191Z,19.35
2022-11-12T08:38:42.426Z,19.83
2022-11-12T08:41:11.500Z,20.38
2022-11-12T08:43:39.740Z,20.85
2022-11-12T08:46:06.575Z,20.65
2022-11-12T08:48:35.329Z,20.15
2022-11-12T08:51:04.061Z,19.90
2022-11-12T08:53:31.201Z,19.05
2022-11-12T08:55:58.319Z,19.00
2022-11-12T08:58:26.628Z,17.13
2022-11-12T09:00:54.301Z,17.50
2022-11-12T09:03:23.090Z,15.90
2022-11-12T09:05:51.056Z,15.77
2022-11-12T09:08:21.875Z,15.95
2022-11-12T09:10:49.294Z,14.98
2022-11-12T09:13:19.035Z,15.57
2022-11-12T09:15:47.077Z,16.13
2022-11-12T09:18:16.210Z,17.58
2022-11-12T09:20:43.142Z,19.90
2022-11-12T09:23:12.894Z,22.02
2022-11-12T09:25:41.284Z,24.55
2022-11-12T09:28:10.604Z,23.20
2022-11-12T09:30:41.913Z,23.17
2022-11-12T09:33:08.805Z,22.50
2022-11-12T09:35:35.576Z,20.30
2022-11-12T09:38:02.470Z,18.70
2022-11-12T09:40:53.668Z,16.40
2022-11-12T09:43:25.760Z,17.30
2022-11-12T09:46:13.928Z,17.13
2022-11-12T09:48:48.820Z,19.58
2022-11-12T09:51:28.515Z,17.95
2022-11-12T09:53:57.936Z,16.67
2022-11-12T09:56:25.930Z,15.55
2022-11-12T09:58:53.731Z,14.98
2022-11-12T10:01:43.935Z,13.57
2022-11-12T10:04:31.837Z,13.75
2022-11-12T10:07:14.244Z,13.47
2022-11-12T10:10:01.423Z,11.60
2022-11-12T10:12:54.852Z,11.55
2022-11-12T10:16:10.798Z,10.82
2022-11-12T10:18:43.732Z,11.63
2022-11-12T10:21:15.904Z,10.77
2022-11-12T10:23:45.756Z,11.13
2022-11-12T10:26:15.526Z,10.88
2022-11-12T10:28:50.562Z,10.38
2022-11-12T10:31:19.794Z,10.98
2022-11-12T10:33:46.778Z,10.00
2022-11-12T10:36:31.439Z,9.68
2022-11-12T10:38:58.274Z,9.23
2022-11-12T10:41:30.952Z,9.18
2022-11-12T10:44:00.140Z,9.32
2022-11-12T10:46:32.674Z,10.60
2022-11-12T10:49:24.677Z,9.48
2022-11-12T10:51:58.773Z,10.02
2022-11-12T10:54:35.202Z,9.50
2022-11-12T10:57:28.423Z,10.52
2022-11-12T11:00:13.383Z,11.70
2022-11-12T11:02:53.086Z,10.43
2022-11-12T11:05:36.324Z,9.63
2022-11-12T11:08:04.706Z,9.25
2022-11-12T11:10:33.839Z,9.10
2022-11-12T11:13:26.018Z,9.03
2022-11-12T11:16:05.071Z,8.27
2022-11-12T11:18:35.688Z,8.50
2022-11-12T11:21:37.868Z,8.70
2022-11-12T11:24:37.159Z,8.27
2022-11-12T11:27:27.301Z,8.83
2022-11-12T11:30:01.393Z,8.00
2022-11-12T11:32:51.863Z,8.30
2022-11-12T11:35:50.893Z,7.80
2022-11-12T11:38:43.743Z,7.47
2022-11-12T11:41:30.481Z,7.20
2022-11-12T11:44:31.276Z,7.10
2022-11-12T11:48:01.249Z,7.80
2022-11-12T11:50:40.493Z,6.97
2022-11-12T11:53:35.122Z,7.40
2022-11-12T11:56:13.962Z,7.10
2022-11-12T11:59:23.466Z,6.75
2022-11-12T12:01:59.374Z,6.20
2022-11-12T12:05:06.931Z,6.63
2022-11-12T12:07:54.625Z,6.35
2022-11-12T12:10:53.719Z,6.80
2022-11-12T12:13:36.119Z,6.68
2022-11-12T12:16:33.618Z,6.28
2022-11-12T12:19:18.580Z,6.53
2022-11-12T12:21:49.429Z,6.68
2022-11-12T12:24:33.080Z,6.30
2022-11-12T12:27:21.040Z,6.60
2022-11-12T12:29:58.674Z,6.75
2022-11-12T12:32:33.489Z,6.10
2022-11-12T12:35:06.711Z,5.90
2022-11-12T12:37:48.390Z,5.80
2022-11-12T12:40:23.021Z,6.10
2022-11-12T12:43:13.629Z,7.28
2022-11-12T12:45:42.943Z,7.82
2022-11-12T12:48:32.833Z,7.32
2022-11-12T12:51:04.448Z,6.17
2022-11-12T12:53:36.386Z,5.80
2022-11-12T12:56:15.171Z,6.07
2022-11-12T12:58:47.071Z,6.10
2022-11-12T13:01:23.024Z,5.50
2022-11-12T13:04:08.824Z,6.10
2022-11-12T13:06:45.846Z,5.88
2022-11-12T13:09:19.087Z,6.00
2022-11-12T13:12:04.984Z,5.95
2022-11-12T13:14:31.731Z,5.97
2022-11-12T13:17:04.783Z,6.07
2022-11-12T13:19:53.409Z,6.10
2022-11-12T13:22:20.076Z,6.22
2022-11-12T13:25:08.532Z,6.18
2022-11-12T13:28:05.706Z,6.28
2022-11-12T13:30:32.430Z,6.50
2022-11-12T13:33:00.980Z,8.30
2022-11-12T13:35:36.662Z,6.85
2022-11-12T13:38:15.851Z,6.40
2022-11-12T13:41:04.644Z,6.10
2022-11-12T13:43:44.243Z,7.03
2022-11-12T13:46:13.766Z,9.40
2022-11-12T13:48:48.071Z,10.73
2022-11-12T13:51:25.818Z,8.25
2022-11-12T13:53:56.643Z,6.85
2022-11-12T13:56:31.412Z,6.00
2022-11-12T13:59:18.219Z,5.60
2022-11-12T14:01:47.237Z,5.85
2022-11-12T14:04:20.025Z,5.55
2022-11-12T14:07:16.598Z,5.72
2022-11-12T14:10:02.057Z,5.87
2022-11-12T14:12:51.653Z,5.95
2022-11-12T14:16:00.234Z,6.55
2022-11-12T14:18:32.771Z,7.03
2022-11-12T14:21:06.580Z,6.57
2022-11-12T14:23:38.129Z,5.90
2022-11-12T14:26:05.366Z,5.95
2022-11-12T14:28:34.430Z,6.10
2022-11-12T14:31:02.803Z,6.18
2022-11-12T14:33:31.426Z,6.20
2022-11-12T14:36:05.568Z,6.40
2022-11-12T14:38:37.089Z,5.80
2022-11-12T14:41:07.656Z,5.53
2022-11-12T14:43:46.654Z,5.78
2022-11-12T14:46:43.669Z,6.40
2022-11-12T14:49:37.327Z,6.10
2022-11-12T14:52:12.521Z,6.85
2022-11-12T14:54:50.491Z,6.88
2022-11-12T14:57:28.946Z,7.07
2022-11-12T14:59:57.308Z,6.85
2022-11-12T15:02:47.314Z,7.23
2022-11-12T15:05:21.152Z,7.50
2022-11-12T15:08:11.844Z,7.70
2022-11-12T15:10:45.201Z,7.70
2022-11-12T15:13:19.401Z,7.18
2022-11-12T15:15:54.574Z,7.60
2022-11-12T15:18:25.139Z,7.25
2022-11-12T15:21:12.883Z,7.20
2022-11-12T15:24:20.418Z,8.00
2022-11-12T15:26:50.557Z,7.80
2022-11-12T15:33:13.644Z,8.30
2022-11-12T15:35:44.012Z,8.85
2022-11-12T15:38:35.951Z,7.47
2022-11-12T15:41:03.177Z,8.10
2022-11-12T15:43:35.109Z,8.73
2022-11-12T15:46:02.364Z,9.38
2022-11-12T15:48:29.107Z,9.27
2022-11-12T15:50:55.814Z,9.70
2022-11-12T15:53:22.588Z,9.23
2022-11-12T15:55:51.586Z,9.83
2022-11-12T15:58:26.993Z,9.63
2022-11-12T16:00:53.867Z,9.45
2022-11-12T16:03:22.597Z,10.00
2022-11-12T16:05:49.305Z,14.13
2022-11-12T16:08:16.320Z,11.20
2022-11-12T16:10:45.640Z,10.77
2022-11-12T16:13:26.350Z,12.18
2022-11-12T16:15:54.164Z,11.85
2022-11-12T16:18:20.910Z,11.57
2022-11-12T16:20:49.520Z,12.87
2022-11-12T16:23:16.432Z,11.10
2022-11-12T16:25:44.207Z,10.82
2022-11-12T16:28:18.327Z,10.77
2022-11-12T16:30:46.464Z,11.90
2022-11-12T16:33:14.213Z,11.13
2022-11-12T16:35:41.231Z,12.65
2022-11-12T16:38:16.223Z,12.60
2022-11-12T16:40:44.587Z,13.57
2022-11-12T16:43:12.478Z,13.75
2022-11-12T16:45:41.263Z,15.20
2022-11-12T16:48:18.547Z,14.88
2022-11-12T16:50:45.700Z,14.88
2022-11-12T16:53:12.499Z,14.57
2022-11-12T16:55:39.249Z,14.38
2022-11-12T16:58:06.037Z,14.47
2022-11-12T17:00:32.733Z,14.25
2022-11-12T17:02:59.515Z,14.30
2022-11-12T17:05:26.429Z,14.52
2022-11-12T17:07:57.815Z,15.15
2022-11-12T17:10:25.303Z,14.67
2022-11-12T17:12:52.601Z,14.82
2022-11-12T17:15:19.465Z,15.88
2022-11-12T17:17:46.205Z,15.43
2022-11-12T17:20:13.073Z,15.43
2022-11-12T17:22:40.041Z,15.30
2022-11-12T17:25:08.271Z,15.25
2022-11-12T17:27:35.000Z,15.05
2022-11-12T17:30:02.258Z,15.98
2022-11-12T17:32:28.989Z,16.10
2022-11-12T17:34:55.706Z,18.50
2022-11-12T17:37:22.461Z,18.27
2022-11-12T17:39:49.271Z,18.88
2022-11-12T17:42:15.955Z,18.70
2022-11-12T17:44:46.476Z,19.38
2022-11-12T17:47:13.260Z,19.13
2022-11-12T17:49:40.395Z,19.02
2022-11-12T17:52:07.411Z,20.52
2022-11-12T17:54:35.423Z,19.75
2022-11-12T17:57:02.160Z,19.67
2022-11-12T17:59:28.890Z,19.63
2022-11-12T18:01:56.631Z,20.55
2022-11-12T18:04:23.905Z,20.70
2022-11-12T18:06:51.054Z,22.67
2022-11-12T18:09:18.424Z,25.80
2022-11-12T18:11:48.903Z,24.20
2022-11-12T18:14:16.074Z,21.35
2022-11-12T18:16:44.961Z,23.20
2022-11-12T18:19:12.552Z,21.50
2022-11-12T18:21:40.327Z,22.45
2022-11-12T18:24:12.168Z,22.33
2022-11-12T18:26:39.146Z,23.45
2022-11-12T18:29:07.290Z,23.55
2022-11-12T18:31:35.165Z,20.98
2022-11-12T18:34:13.408Z,20.25
2022-11-12T18:36:40.117Z,22.53
2022-11-12T18:39:07.917Z,23.70
2022-11-12T18:41:35.701Z,22.55
2022-11-12T18:44:02.409Z,21.77
2022-11-12T18:46:29.129Z,22.30
2022-11-12T18:48:55.935Z,21.23
2022-11-12T18:51:22.715Z,20.50
2022-11-12T18:53:49.529Z,20.42
2022-11-12T18:56:18.759Z,20.95
2022-11-12T18:58:45.963Z,21.20
2022-11-12T19:01:17.625Z,24.50
2022-11-12T19:03:44.835Z,26.95
2022-11-12T19:06:13.722Z,24.77
2022-11-12T19:08:41.181Z,23.10
2022-11-12T19:11:10.521Z,23.10
2022-11-12T19:13:37.578Z,21.53
2022-11-12T19:16:17.244Z,21.88
2022-11-12T19:18:44.579Z,22.27
2022-11-12T19:21:20.077Z,20.45
2022-11-12T19:23:52.690Z,20.83
2022-11-12T19:26:21.457Z,21.27
2022-11-12T19:28:48.293Z,20.25
2022-11-12T19:31:17.376Z,19.85
2022-11-12T19:33:44.862Z,22.00
2022-11-12T19:36:25.929Z,21.48
2022-11-12T19:39:02.389Z,21.67
2022-11-12T19:41:30.212Z,20.67
2022-11-12T19:43:56.985Z,21.75
2022-11-12T19:46:23.822Z,21.98
2022-11-12T19:48:51.348Z,19.83
2022-11-12T19:51:18.060Z,20.97
2022-11-12T19:53:45.096Z,20.30
2022-11-12T19:56:14.165Z,20.42
2022-11-12T19:58:45.813Z,20.95
2022-11-12T20:01:14.946Z,19.90
2022-11-12T20:03:41.998Z,19.00
2022-11-12T20:06:15.305Z,19.88
2022-11-12T20:08:42.369Z,19.63
2022-11-12T20:11:09.977Z,18.73
2022-11-12T20:13:36.745Z,18.67
2022-11-12T20:16:12.836Z,17.97
2022-11-12T20:18:39.859Z,17.52
2022-11-12T20:21:07.773Z,17.90
2022-11-12T20:23:36.272Z,17.45
2022-11-12T20:26:09.769Z,17.73
2022-11-12T20:28:38.342Z,17.07
2022-11-12T20:31:17.066Z,18.13
2022-11-12T20:33:44.836Z,19.20
2022-11-12T20:36:17.340Z,19.85
2022-11-12T20:38:45.079Z,19.90
2022-11-12T20:41:17.721Z,20.63
2022-11-12T20:43:45.065Z,19.60
2022-11-12T20:46:13.037Z,19.90
2022-11-12T20:48:43.449Z,19.85
2022-11-12T20:51:25.318Z,20.52
2022-11-12T20:53:59.869Z,20.57
2022-11-12T20:56:28.912Z,19.17
2022-11-12T20:58:55.713Z,19.80
2022-11-12T21:01:26.839Z,19.38
2022-11-12T21:03:53.906Z,19.10
2022-11-12T21:06:26.310Z,20.13
2022-11-12T21:08:53.270Z,22.52
2022-11-12T21:11:22.871Z,22.48
2022-11-12T21:13:52.458Z,24.00
2022-11-12T21:16:19.287Z,22.55
2022-11-12T21:18:45.972Z,22.40
2022-11-12T21:21:14.791Z,21.10
2022-11-12T21:23:43.673Z,20.25
2022-11-12T21:26:16.688Z,21.40
2022-11-12T21:28:48.319Z,19.42
2022-11-12T21:31:17.539Z,18.90
2022-11-12T21:33:44.408Z,22.35
2022-11-12T21:36:16.050Z,19.52
2022-11-12T21:38:44.082Z,18.23
2022-11-12T21:41:19.294Z,17.00
2022-11-12T21:43:47.014Z,17.27
2022-11-12T21:46:19.518Z,16.67
2022-11-12T21:48:51.013Z,17.83
2022-11-12T21:51:24.957Z,17.05
2022-11-12T21:54:06.300Z,17.85
2022-11-12T21:56:34.230Z,16.83
2022-11-12T21:59:03.710Z,16.77
2022-11-12T22:01:33.505Z,17.88
2022-11-12T22:04:01.065Z,18.50
2022-11-12T22:06:29.832Z,18.13
2022-11-12T22:08:57.790Z,17.20
2022-11-12T22:11:27.567Z,16.17
2022-11-12T22:13:55.428Z,16.13
2022-11-12T22:16:24.324Z,14.80
2022-11-12T22:18:53.336Z,14.32
2022-11-12T22:21:36.769Z,15.60
2022-11-12T22:24:07.009Z,16.58
2022-11-12T22:26:33.888Z,15.48
2022-11-12T22:29:00.761Z,14.73
2022-11-12T22:31:32.402Z,15.20
2022-11-12T22:34:00.874Z,14.40
2022-11-12T22:36:30.316Z,15.38
2022-11-12T22:38:57.486Z,15.38
2022-11-12T22:41:29.807Z,15.00
2022-11-12T22:44:00.984Z,13.48
2022-11-12T22:46:33.625Z,13.40
2022-11-12T22:49:00.849Z,14.02
2022-11-12T22:51:29.387Z,14.13
2022-11-12T22:53:58.289Z,15.52
2022-11-12T22:56:26.417Z,14.75
2022-11-12T22:58:53.915Z,15.07
2022-11-12T23:01:29.219Z,15.18
2022-11-12T23:03:58.767Z,15.02
2022-11-12T23:06:26.539Z,15.13
2022-11-12T23:08:54.599Z,14.02
2022-11-12T23:11:22.092Z,13.83
2022-11-12T23:13:49.224Z,13.90
2022-11-12T23:16:18.583Z,14.02
2022-11-12T23:18:45.474Z,14.45
2022-11-12T23:21:14.975Z,13.75
2022-11-12T23:23:41.960Z,14.60
2022-11-12T23:26:12.163Z,14.43
2022-11-12T23:28:38.932Z,14.38
2022-11-12T23:31:11.595Z,13.98
2022-11-12T23:33:38.768Z,14.52
2022-11-12T23:36:10.089Z,14.40
2022-11-12T23:38:37.293Z,14.77
2022-11-12T23:41:04.790Z,14.75
2022-11-12T23:43:32.008Z,15.02
2022-11-12T23:45:58.754Z,15.23
2022-11-12T23:48:26.149Z,14.87
2022-11-12T23:51:02.561Z,15.10
2022-11-12T23:53:29.301Z,14.13
2022-11-12T23:55:56.064Z,14.95
2022-11-12T23:58:23.012Z,15.40
